DGAA

Kotoka International Airport

Accra, Ghana
METAR DGAA 172000Z 21008KT 7000 BR NSC 28/24 Q1011 NOSIG
Observed Flight Rules
Dec-17 @ 20:00 UTC (an hour ago) Marginal Visual Flight Rules
Wind Visibility Clouds Conditions
210° at 8 knots 7,001 meters
  • Clear skies
  • Mist
Temperatures Readings
Current 28°C / 82°F
Dewpoint 24°C / 75°F
Humidity 79%
Altimeter 29.85" Hg
Pressure 1011 hPa
Elevation 69
METAR DGAA 172000Z 21008KT 7000 BR NSC 28/24 Q1011 NOSIG
Observed Flight Rules
Dec-17 @ 20:00 UTC
(an hour ago)
MVFR
Wind Visibility
210° at 8 knots 7,001 meters
Clouds
  • Clear skies
Conditions
  • Mist
Temperature Dewpoint
28°C / 82°F 24°C / 75°F
Humidity Altimeter Pressure
79% 29.85" Hg 1011 hPa